METAR Data
IDs: Format: Raw Decoded Include TAF

Data at: 1846 UTC 25 Mar 2019

KADS 251747Z 36012G20KT 10SM SKC 19/09 A3023
KADS 251647Z 33011G15KT 10SM SKC 18/09 A3023
KADS 251553Z 35010G15KT 10SM SKC 18/09 A3022
KADS 251447Z 01010G16KT 10SM SKC 16/08 A3019
KADS 251347Z 02010KT 10SM SKC 14/08 A3016
KADS 251255Z 35008KT 10SM SKC 13/08 A3015
KADS 251147Z 01005KT 10SM SKC 13/08 A3013
KADS 251047Z 02007KT 10SM SKC 14/09 A3010
KADS 251035Z AUTO 03008KT 10SM SCT060 14/09 A3010 RMK AO2 T01380091
KADS 251015Z AUTO 02006KT 10SM BKN060 14/10 A3010 RMK AO2 T01400095
KADS 250955Z AUTO 01008KT 10SM SCT060 15/10 A3009 RMK AO2 T01450097
KADS 250935Z AUTO 02005KT 10SM CLR 15/10 A3008 RMK AO2 T01470100
KADS 250915Z AUTO 03005KT 10SM CLR 15/11 A3006 RMK AO2 T01470105
KADS 250855Z AUTO 03005KT 10SM CLR 15/11 A3006 RMK AO2 T01520106
KADS 250835Z AUTO 02007KT 10SM CLR 15/11 A3005 RMK AO2 T01540111
KADS 250815Z AUTO 03006KT 10SM CLR 16/12 A3004 RMK AO2 T01550116
KADS 250755Z AUTO 03006KT 10SM CLR 16/12 A3004 RMK AO2 LTG DSNT SE T01580120
KADS 250735Z AUTO 02007KT 10SM SCT060 16/13 A3005 RMK AO2 LTG DSNT SE T01600126
KADS 250715Z AUTO 01011KT 10SM BKN060 16/13 A3005 RMK AO2 LTG DSNT SE T01610131
KADS 250655Z AUTO 36010KT 10SM OVC060 17/14 A3006 RMK AO2 T01660142
KADS 250635Z AUTO 34010G15KT 10SM BKN060 17/15 A3007 RMK AO2 LTG DSNT NE AND E T01710149
KADS 250615Z AUTO 33007KT 300V360 10SM VCTS SCT070 17/16 A3006 RMK AO2 LTG DSNT E AND SE T01720160
KADS 250555Z AUTO 34005KT 10SM SCT008 SCT026 BKN065 18/17 A3006 RMK AO2 LTG DSNT E THRU SW T01790166 10250 20179 402740158
KADS 250535Z AUTO 22005KT 4SM /VCTSRA SCT008 SCT028 OVC049 19/17 A3005 RMK AO2 LTG DSNT ALQS T01870173
KADS 250515Z AUTO 01007KT 10SM -RA SCT014 BKN050 OVC090 19/18 A3002 RMK AO2 LTG DSNT NE AND W T01900175
KADS 250455Z AUTO 33006KT 10SM SCT042 SCT070 19/18 A3003 RMK AO2 LTG DSNT NE T01920175
KADS 250435Z AUTO 30006KT 10SM VCTS SCT044 19/18 A3003 RMK AO2 LTG DSNT NW THRU E T01930180
KADS 250415Z AUTO 23003KT 10SM CLR 20/18 A3000 RMK AO2 LTG DSNT NW THRU NE T01970180
KADS 250355Z AUTO 19005KT 10SM SCT012 SCT023 SCT033 19/18 A3001 RMK AO2 LTG DSNT NW THRU E T01940176
KADS 250335Z AUTO 26004G25KT 3SM /VCTSRA SCT012 SCT023 OVC044 20/15 A3002 RMK AO2 LTG DSNT ALQS T02030154
KADS 250315Z AUTO 00000KT 10SM TS BKN046 BKN050 BKN065 23/17 A3001 RMK AO2 T02250170
KADS 250247Z 17004KT 10SM OVC048 22/17 A3000 RMK LGT VC
KADS 250151Z 22004KT 10SM SCT110 24/16 A2997 RMK LGT DSNT NE - E
KADS 250055Z 17009G18KT 10SM OVC110 24/16 A2995 RMK TS DSNT NW - NE MOV E
KADS 242347Z 19012G21KT 10SM SCT060 26/16 A2994 RMK TS DSNT NW - NE MOV E
KADS 242247Z 16015G20KT 10SM SCT060 SCT070 SCT085 26/16 A2994
KADS 242147Z 17010G16KT 10SM SCT045 SCT070 SCT090 26/17 A2995
KADS 242047Z 16016G16KT 10SM SCT045 26/16 A2997
KADS 241947Z 16011G16KT 10SM BKN039 26/17 A2998
KADS 241847Z 20009G16KT 10SM BKN033 25/16 A3001
KADS 241747Z 19014G18KT 10SM OVC033 24/16 A3004
KADS 241647Z 20008G15KT 10SM OVC023 23/16 A3005
KADS 241547Z 20011G21KT 10SM BKN012 21/16 A3006
KADS 241504Z 20012G22KT 10SM BKN012 20/16 A3006
KADS 241447Z 21005G18KT 10SM OVC009 19/16 A3006
KADS 241353Z 18011G17KT 10SM OVC008 18/16 A3005
KADS 241325Z 17010G16KT 10SM BKN008 17/15 A3004
KADS 241247Z 17009G15KT 10SM SKC 17/15 A3003
KADS 241147Z 17007KT 10SM SKC 17/15 A3003
KADS 241047Z 17008KT 10SM BKN014 17/15 A3002
KADS 241035Z AUTO 18007KT 10SM BKN014 17/15 A3003 RMK AO2 T01660148
KADS 241015Z AUTO 17006KT 10SM BKN016 17/15 A3002 RMK AO2 T01680148
KADS 240955Z AUTO 17008KT 10SM OVC016 17/15 A3002 RMK AO2 T01700148
KADS 240935Z AUTO 17008KT 10SM BKN016 17/15 A3002 RMK AO2 T01710147
KADS 240915Z AUTO 17007KT 10SM BKN018 17/15 A3002 RMK AO2 T01740147
KADS 240855Z AUTO 18009KT 10SM OVC018 18/15 A3003 RMK AO2 T01770147
KADS 240835Z AUTO 17009KT 10SM OVC018 18/15 A3003 RMK AO2 T01800147
KADS 240815Z AUTO 18008KT 10SM OVC018 18/15 A3004 RMK AO2 T01810147
KADS 240755Z AUTO 18008KT 10SM OVC020 18/15 A3005 RMK AO2 T01820146
KADS 240735Z AUTO 18008KT 10SM OVC022 18/15 A3005 RMK AO2 T01830146
KADS 240715Z AUTO 18009G14KT 10SM OVC022 19/15 A3005 RMK AO2 T01850146
KADS 240655Z AUTO 18011G15KT 10SM SCT022 OVC037 19/15 A3005 RMK AO2 T01850145